createdAt,value
2018-09-23T00:00:16.044Z,101395.23
2018-09-23T00:02:45.094Z,101395.59
2018-09-23T00:05:14.123Z,101385.86
2018-09-23T00:07:43.306Z,101385.11
2018-09-23T00:10:12.849Z,101387.27
2018-09-23T00:12:43.070Z,101382.08
2018-09-23T00:15:12.240Z,101378.94
2018-09-23T00:17:41.300Z,101378.94
2018-09-23T00:20:10.631Z,101378.19
2018-09-23T00:22:39.660Z,101383.36
2018-09-23T00:25:08.846Z,101384.38
2018-09-23T00:27:38.057Z,101389.56
2018-09-23T00:30:07.324Z,101391.97
2018-09-23T00:32:36.314Z,101392.84
2018-09-23T00:35:05.363Z,101390.59
2018-09-23T00:37:34.635Z,101384.36
2018-09-23T00:40:03.827Z,101382.35
2018-09-23T00:42:32.925Z,101381.97
2018-09-23T00:45:02.081Z,101381.70
2018-09-23T00:47:31.254Z,101385.64
2018-09-23T00:50:00.461Z,101379.67
2018-09-23T00:52:29.881Z,101377.67
2018-09-23T00:54:58.922Z,101379.06
2018-09-23T00:57:28.006Z,101369.81
2018-09-23T00:59:57.121Z,101362.72
2018-09-23T01:02:26.219Z,101363.73
2018-09-23T01:04:55.441Z,101366.91
2018-09-23T01:07:24.925Z,101369.06
2018-09-23T01:09:54.309Z,101357.05
2018-09-23T01:12:23.438Z,101358.94
2018-09-23T01:14:52.548Z,101362.99
2018-09-23T01:17:21.693Z,101361.95
2018-09-23T01:19:50.775Z,101360.19
2018-09-23T01:22:19.839Z,101360.94
2018-09-23T01:24:49.036Z,101355.77
2018-09-23T01:27:18.251Z,101358.17
2018-09-23T01:29:47.370Z,101363.46
2018-09-23T01:32:16.444Z,101361.33
2018-09-23T01:34:45.523Z,101361.06
2018-09-23T01:37:14.652Z,101355.63
2018-09-23T01:39:43.802Z,101364.73
2018-09-23T01:42:12.889Z,101360.63
2018-09-23T01:44:42.034Z,101365.84
2018-09-23T01:47:11.260Z,101364.98
2018-09-23T01:49:40.768Z,101372.14
2018-09-23T01:52:10.166Z,101370.23
2018-09-23T01:54:39.191Z,101372.02
2018-09-23T01:57:08.275Z,101365.36
2018-09-23T01:59:37.693Z,101373.34
2018-09-23T02:02:06.783Z,101368.72
2018-09-23T02:04:36.269Z,101364.98
2018-09-23T02:07:05.338Z,101360.88
2018-09-23T02:09:34.463Z,101365.17
2018-09-23T02:12:03.561Z,101362.13
2018-09-23T02:14:32.652Z,101363.27
2018-09-23T02:17:01.641Z,101360.61
2018-09-23T02:19:30.956Z,101368.81
2018-09-23T02:22:00.028Z,101369.42
2018-09-23T02:24:29.055Z,101370.32
2018-09-23T02:26:58.105Z,101366.73
2018-09-23T02:29:27.598Z,101356.66
2018-09-23T02:31:57.049Z,101357.06
2018-09-23T02:34:26.476Z,101359.84
2018-09-23T02:36:55.880Z,101348.86
2018-09-23T02:39:25.264Z,101361.25
2018-09-23T02:41:54.630Z,101360.14
2018-09-23T02:44:23.739Z,101363.72
2018-09-23T02:46:52.877Z,101370.05
2018-09-23T02:49:21.922Z,101373.34
2018-09-23T02:51:51.064Z,101378.66
2018-09-23T02:54:20.151Z,101382.35
2018-09-23T02:56:49.207Z,101370.97
2018-09-23T02:59:18.247Z,101369.57
2018-09-23T03:01:47.800Z,101370.70
2018-09-23T03:04:17.099Z,101369.80
2018-09-23T03:06:46.654Z,101376.66
2018-09-23T03:09:16.325Z,101383.23
2018-09-23T03:11:46.048Z,101383.85
2018-09-23T03:14:15.585Z,101386.14
2018-09-23T03:16:44.828Z,101391.72
2018-09-23T03:19:13.883Z,101393.86
2018-09-23T03:21:42.972Z,101387.41
2018-09-23T03:24:12.068Z,101383.36
2018-09-23T03:26:41.171Z,101384.63
2018-09-23T03:29:10.293Z,101390.31
2018-09-23T03:31:39.756Z,101392.35
2018-09-23T03:34:08.957Z,101389.30
2018-09-23T03:36:38.059Z,101390.07
2018-09-23T03:39:07.920Z,101391.31
2018-09-23T03:41:37.072Z,101391.47
2018-09-23T03:44:06.249Z,101397.02
2018-09-23T03:46:35.338Z,101402.33
2018-09-23T03:49:05.003Z,101400.91
2018-09-23T03:51:34.424Z,101401.19
2018-09-23T03:54:03.737Z,101395.88
2018-09-23T03:56:33.130Z,101391.31
2018-09-23T03:59:02.580Z,101386.00
2018-09-23T04:01:31.688Z,101385.73
2018-09-23T04:04:00.869Z,101395.05
2018-09-23T04:06:30.015Z,101390.63
2018-09-23T04:08:59.035Z,101392.58
2018-09-23T04:11:28.128Z,101396.25
2018-09-23T04:13:57.186Z,101401.03
2018-09-23T04:16:26.538Z,101407.52
2018-09-23T04:18:55.984Z,101411.59
2018-09-23T04:21:25.834Z,101406.77
2018-09-23T04:23:55.207Z,101411.84
2018-09-23T04:26:24.711Z,101410.33
2018-09-23T04:28:53.748Z,101404.39
2018-09-23T04:31:22.898Z,101411.59
2018-09-23T04:33:52.066Z,101412.50
2018-09-23T04:36:21.205Z,101415.65
2018-09-23T04:38:50.337Z,101427.05
2018-09-23T04:41:19.387Z,101427.06
2018-09-23T04:43:48.445Z,101418.19
2018-09-23T04:46:17.497Z,101420.97
2018-09-23T04:48:46.702Z,101429.09
2018-09-23T04:51:15.750Z,101425.30
2018-09-23T04:53:44.890Z,101420.84
2018-09-23T04:56:13.992Z,101420.19
2018-09-23T04:58:43.134Z,101420.21
2018-09-23T05:01:12.884Z,101419.59
2018-09-23T05:03:41.954Z,101423.23
2018-09-23T05:06:11.119Z,101420.97
2018-09-23T05:08:40.220Z,101425.91
2018-09-23T05:11:09.224Z,101430.86
2018-09-23T05:13:39.081Z,101428.81
2018-09-23T05:16:08.481Z,101440.22
2018-09-23T05:18:38.831Z,101443.17
2018-09-23T05:21:08.019Z,101443.29
2018-09-23T05:23:37.109Z,101447.30
2018-09-23T05:26:06.365Z,101445.38
2018-09-23T05:28:35.536Z,101442.45
2018-09-23T05:31:04.733Z,101436.47
2018-09-23T05:33:34.330Z,101443.45
2018-09-23T05:36:03.472Z,101438.03
2018-09-23T05:38:32.644Z,101438.18
2018-09-23T05:41:02.081Z,101446.40
2018-09-23T05:43:31.306Z,101448.94
2018-09-23T05:46:00.501Z,101451.63
2018-09-23T05:48:29.564Z,101446.56
2018-09-23T05:50:59.736Z,101451.81
2018-09-23T05:53:28.844Z,101455.82
2018-09-23T05:55:57.820Z,101462.12
2018-09-23T05:58:26.940Z,101479.89
2018-09-23T06:00:56.624Z,101481.44
2018-09-23T06:03:25.746Z,101482.08
2018-09-23T06:05:54.858Z,101482.80
2018-09-23T06:08:23.920Z,101488.86
2018-09-23T06:10:53.870Z,101486.97
2018-09-23T06:13:23.037Z,101482.80
2018-09-23T06:15:52.157Z,101488.78
2018-09-23T06:18:21.234Z,101500.06
2018-09-23T06:20:50.373Z,101502.94
2018-09-23T06:23:19.468Z,101511.02
2018-09-23T06:25:48.599Z,101520.63
2018-09-23T06:28:18.150Z,101527.47
2018-09-23T06:30:47.295Z,101525.85
2018-09-23T06:33:16.339Z,101522.48
2018-09-23T06:35:45.404Z,101524.07
2018-09-23T06:38:14.543Z,101534.87
2018-09-23T06:40:43.586Z,101537.04
2018-09-23T06:43:12.983Z,101535.91
2018-09-23T06:45:42.127Z,101538.20
2018-09-23T06:48:11.541Z,101539.02
2018-09-23T06:50:40.614Z,101535.27
2018-09-23T06:53:09.644Z,101537.66
2018-09-23T06:55:38.752Z,101536.28
2018-09-23T06:58:07.833Z,101533.35
2018-09-23T07:00:36.885Z,101530.33
2018-09-23T07:03:06.168Z,101535.05
2018-09-23T07:05:35.264Z,101537.50
2018-09-23T07:08:04.448Z,101539.41
2018-09-23T07:10:33.479Z,101539.63
2018-09-23T07:13:02.653Z,101537.22
2018-09-23T07:15:31.731Z,101547.48
2018-09-23T07:18:00.797Z,101544.87
2018-09-23T07:20:29.910Z,101551.69
2018-09-23T07:22:59.051Z,101539.80
2018-09-23T07:25:28.335Z,101542.06
2018-09-23T07:27:57.577Z,101545.31
2018-09-23T07:30:26.701Z,101539.02
2018-09-23T07:32:55.845Z,101537.63
2018-09-23T07:35:24.966Z,101545.26
2018-09-23T07:37:54.146Z,101546.18
2018-09-23T07:40:23.196Z,101538.98
2018-09-23T07:42:52.451Z,101544.96
2018-09-23T07:45:21.482Z,101543.12
2018-09-23T07:47:50.916Z,101541.30
2018-09-23T07:50:20.028Z,101541.40
2018-09-23T07:52:49.429Z,101548.29
2018-09-23T07:55:18.479Z,101539.88
2018-09-23T07:57:47.657Z,101543.00
2018-09-23T08:00:16.710Z,101539.03
2018-09-23T08:02:45.859Z,101532.28
2018-09-23T08:05:15.066Z,101537.05
2018-09-23T08:07:44.101Z,101535.70
2018-09-23T08:10:13.199Z,101532.20
2018-09-23T08:12:42.537Z,101538.96
2018-09-23T08:15:11.552Z,101524.61
2018-09-23T08:17:40.892Z,101531.55
2018-09-23T08:20:10.460Z,101527.48
2018-09-23T08:22:40.016Z,101526.98
2018-09-23T08:25:09.142Z,101528.97
2018-09-23T08:27:38.231Z,101527.67
2018-09-23T08:30:07.432Z,101528.30
2018-09-23T08:32:36.589Z,101530.98
2018-09-23T08:35:06.006Z,101514.94
2018-09-23T08:37:35.146Z,101520.97
2018-09-23T08:40:04.298Z,101514.15
2018-09-23T08:42:33.599Z,101508.50
2018-09-23T08:45:03.145Z,101508.36
2018-09-23T08:47:32.188Z,101507.32
2018-09-23T08:50:01.518Z,101516.77
2018-09-23T08:52:30.589Z,101516.72
2018-09-23T08:54:59.705Z,101517.05
2018-09-23T08:57:28.722Z,101515.55
2018-09-23T08:59:58.229Z,101519.47
2018-09-23T09:02:27.277Z,101523.89
2018-09-23T09:04:56.698Z,101518.40
2018-09-23T09:07:25.788Z,101515.59
2018-09-23T09:09:55.140Z,101516.61
2018-09-23T09:12:24.478Z,101521.35
2018-09-23T09:14:53.839Z,101521.01
2018-09-23T09:17:23.267Z,101522.38
2018-09-23T09:19:52.700Z,101533.36
2018-09-23T09:22:21.851Z,101524.06
2018-09-23T09:24:51.176Z,101524.34
2018-09-23T09:27:20.699Z,101532.22
2018-09-23T09:29:50.084Z,101529.09
2018-09-23T09:32:19.746Z,101527.74
2018-09-23T09:34:49.367Z,101531.51
2018-09-23T09:37:18.466Z,101535.61
2018-09-23T09:39:47.676Z,101541.07
2018-09-23T09:42:17.068Z,101541.00
2018-09-23T09:44:46.618Z,101539.25
2018-09-23T09:47:15.976Z,101539.94
2018-09-23T09:49:45.450Z,101544.48
2018-09-23T09:52:14.489Z,101539.78
2018-09-23T09:54:43.776Z,101544.13
2018-09-23T09:57:12.942Z,101545.83
2018-09-23T09:59:42.302Z,101548.87
2018-09-23T10:02:11.321Z,101548.20
2018-09-23T10:04:40.390Z,101550.91
2018-09-23T10:07:09.737Z,101547.44
2018-09-23T10:09:38.788Z,101551.31
2018-09-23T10:12:08.469Z,101550.79
2018-09-23T10:14:38.300Z,101557.47
2018-09-23T10:17:07.382Z,101558.05
2018-09-23T10:19:36.998Z,101556.20
2018-09-23T10:22:06.116Z,101552.72
2018-09-23T10:24:35.194Z,101549.62
2018-09-23T10:27:04.238Z,101558.55
2018-09-23T10:29:33.291Z,101545.77
2018-09-23T10:32:02.979Z,101550.62
2018-09-23T10:34:31.956Z,101553.42
2018-09-23T10:37:00.979Z,101550.94
2018-09-23T10:39:30.441Z,101551.84
2018-09-23T10:41:59.964Z,101550.54
2018-09-23T10:44:29.051Z,101544.45
2018-09-23T10:46:58.572Z,101551.61
2018-09-23T10:49:27.608Z,101543.80
2018-09-23T10:51:56.738Z,101546.14
2018-09-23T10:54:25.884Z,101539.54
2018-09-23T10:56:54.998Z,101530.40
2018-09-23T10:59:24.081Z,101548.03
2018-09-23T11:01:53.400Z,101528.17
2018-09-23T11:04:22.626Z,101525.06
2018-09-23T11:06:52.054Z,101527.58
2018-09-23T11:09:21.333Z,101533.83
2018-09-23T11:11:50.640Z,101524.07
2018-09-23T11:14:20.482Z,101531.60
2018-09-23T11:16:50.252Z,101525.03
2018-09-23T11:19:19.329Z,101530.15
2018-09-23T11:21:48.425Z,101524.45
2018-09-23T11:24:17.472Z,101530.78
2018-09-23T11:26:46.584Z,101525.03
2018-09-23T11:29:16.016Z,101520.28
2018-09-23T11:31:45.055Z,101526.07
2018-09-23T11:34:14.182Z,101525.10
2018-09-23T11:36:43.260Z,101521.47
2018-09-23T11:39:13.426Z,101518.06
2018-09-23T11:41:42.466Z,101513.95
2018-09-23T11:44:11.448Z,101507.97
2018-09-23T11:46:40.539Z,101507.61
2018-09-23T11:49:10.191Z,101504.54
2018-09-23T11:51:39.628Z,101504.96
2018-09-23T11:54:08.843Z,101521.74
2018-09-23T11:56:37.956Z,101519.64
2018-09-23T11:59:07.161Z,101509.91
2018-09-23T12:01:36.310Z,101508.33
2018-09-23T12:04:05.396Z,101507.04
2018-09-23T12:06:34.492Z,101509.08
2018-09-23T12:09:04.123Z,101506.39
2018-09-23T12:11:33.290Z,101514.58
2018-09-23T12:14:02.319Z,101512.81
2018-09-23T12:16:31.552Z,101507.11
2018-09-23T12:19:00.688Z,101503.30
2018-09-23T12:21:29.786Z,101498.77
2018-09-23T12:23:59.022Z,101499.05
2018-09-23T12:26:28.197Z,101498.98
2018-09-23T12:28:57.614Z,101498.17
2018-09-23T12:31:26.909Z,101500.09
2018-09-23T12:33:56.351Z,101488.84
2018-09-23T12:36:25.964Z,101489.07
2018-09-23T12:38:55.102Z,101487.60
2018-09-23T12:41:24.249Z,101484.89
2018-09-23T12:43:53.367Z,101487.33
2018-09-23T12:46:22.510Z,101483.02
2018-09-23T12:48:51.589Z,101485.94
2018-09-23T12:51:20.722Z,101479.02
2018-09-23T12:53:49.807Z,101471.22
2018-09-23T12:56:18.892Z,101482.20
2018-09-23T12:58:47.983Z,101478.20
2018-09-23T13:01:16.950Z,101481.06
2018-09-23T13:03:46.076Z,101479.05
2018-09-23T13:06:15.074Z,101477.66
2018-09-23T13:08:44.081Z,101478.57
2018-09-23T13:11:13.460Z,101470.40
2018-09-23T13:13:42.511Z,101468.76
2018-09-23T13:16:11.707Z,101458.94
2018-09-23T13:18:41.370Z,101453.78
2018-09-23T13:21:10.692Z,101457.30
2018-09-23T13:23:39.848Z,101461.20
2018-09-23T13:26:08.935Z,101463.48
2018-09-23T13:28:38.078Z,101465.23
2018-09-23T13:31:07.665Z,101465.96
2018-09-23T13:33:37.236Z,101459.73
2018-09-23T13:36:06.552Z,101464.55
2018-09-23T13:38:35.632Z,101459.55
2018-09-23T13:41:04.855Z,101453.36
2018-09-23T13:43:33.961Z,101466.98
2018-09-23T13:46:03.097Z,101453.72
2018-09-23T13:48:32.356Z,101452.92
2018-09-23T13:51:01.417Z,101456.47
2018-09-23T13:53:30.473Z,101460.24
2018-09-23T13:55:59.726Z,101464.80
2018-09-23T13:58:28.882Z,101460.17
2018-09-23T14:00:58.024Z,101460.92
2018-09-23T14:03:27.058Z,101461.41
2018-09-23T14:05:56.124Z,101465.49
2018-09-23T14:08:25.254Z,101461.34
2018-09-23T14:10:54.289Z,101459.25
2018-09-23T14:13:23.336Z,101460.59
2018-09-23T14:15:52.872Z,101466.06
2018-09-23T14:18:22.022Z,101438.12
2018-09-23T14:20:51.480Z,101460.83
2018-09-23T14:23:20.552Z,101461.14
2018-09-23T14:25:49.633Z,101464.37
2018-09-23T14:28:19.040Z,101466.08
2018-09-23T14:30:48.338Z,101463.55
2018-09-23T14:33:17.374Z,101455.75
2018-09-23T14:35:46.430Z,101455.27
2018-09-23T14:38:15.783Z,101446.40
2018-09-23T14:40:45.128Z,101451.28
2018-09-23T14:43:14.180Z,101449.86
2018-09-23T14:45:43.229Z,101458.07
2018-09-23T14:48:12.285Z,101448.27
2018-09-23T14:50:41.425Z,101452.17
2018-09-23T14:53:10.560Z,101451.13
2018-09-23T14:55:39.747Z,101452.05
2018-09-23T14:58:09.178Z,101453.23
2018-09-23T15:00:38.258Z,101465.80
2018-09-23T15:03:07.458Z,101461.55
2018-09-23T15:05:36.543Z,101463.03
2018-09-23T15:08:05.733Z,101460.95
2018-09-23T15:10:35.010Z,101459.59
2018-09-23T15:13:04.150Z,101462.13
2018-09-23T15:15:33.290Z,101470.28
2018-09-23T15:18:02.717Z,101472.91
2018-09-23T15:20:31.825Z,101469.87
2018-09-23T15:23:00.970Z,101467.91
2018-09-23T15:25:30.007Z,101465.23
2018-09-23T15:27:59.161Z,101473.67
2018-09-23T15:30:28.461Z,101477.34
2018-09-23T15:32:57.498Z,101480.84
2018-09-23T15:35:26.576Z,101490.06
2018-09-23T15:37:55.606Z,101495.53
2018-09-23T15:40:25.104Z,101484.39
2018-09-23T15:42:54.577Z,101485.58
2018-09-23T15:45:23.726Z,101485.42
2018-09-23T15:47:52.822Z,101483.48
2018-09-23T15:50:22.010Z,101490.91
2018-09-23T15:52:51.174Z,101491.37
2018-09-23T15:55:20.288Z,101496.09
2018-09-23T15:57:49.488Z,101492.45
2018-09-23T16:00:18.966Z,101493.38
2018-09-23T16:02:48.379Z,101502.27
2018-09-23T16:05:17.735Z,101501.42
2018-09-23T16:07:46.883Z,101502.84
2018-09-23T16:10:15.870Z,101498.03
2018-09-23T16:12:45.027Z,101495.02
2018-09-23T16:15:14.123Z,101493.31
2018-09-23T16:17:43.258Z,101488.75
2018-09-23T16:20:12.570Z,101492.72
2018-09-23T16:22:41.798Z,101491.73
2018-09-23T16:25:10.997Z,101499.73
2018-09-23T16:27:40.145Z,101492.24
2018-09-23T16:30:09.014Z,101498.45
2018-09-23T16:32:38.293Z,101489.81
2018-09-23T16:35:07.391Z,101498.33
2018-09-23T16:37:36.502Z,101498.09
2018-09-23T16:40:05.576Z,101498.92
2018-09-23T16:42:34.626Z,101504.72
2018-09-23T16:45:03.802Z,101503.34
2018-09-23T16:47:32.988Z,101500.95
2018-09-23T16:50:02.038Z,101493.22
2018-09-23T16:52:31.020Z,101499.58
2018-09-23T16:55:00.189Z,101502.77
2018-09-23T16:57:29.250Z,101498.77
2018-09-23T16:59:58.507Z,101503.64
2018-09-23T17:02:27.633Z,101501.78
2018-09-23T17:04:56.733Z,101503.14
2018-09-23T17:07:25.876Z,101508.43
2018-09-23T17:09:54.957Z,101506.00
2018-09-23T17:12:24.212Z,101515.04
2018-09-23T17:14:53.782Z,101517.38
2018-09-23T17:17:23.228Z,101506.47
2018-09-23T17:19:52.732Z,101518.59
2018-09-23T17:22:21.856Z,101519.39
2018-09-23T17:24:50.968Z,101525.58
2018-09-23T17:27:20.112Z,101516.71
2018-09-23T17:29:49.220Z,101524.66
2018-09-23T17:32:18.282Z,101516.62
2018-09-23T17:34:47.738Z,101522.41
2018-09-23T17:37:17.165Z,101524.09
2018-09-23T17:39:46.348Z,101526.62
2018-09-23T17:42:15.526Z,101530.57
2018-09-23T17:44:44.624Z,101538.52
2018-09-23T17:47:13.615Z,101532.52
2018-09-23T17:49:42.792Z,101528.63
2018-09-23T17:52:12.148Z,101531.95
2018-09-23T17:54:41.590Z,101523.59
2018-09-23T17:57:10.818Z,101535.56
2018-09-23T17:59:39.800Z,101535.13
2018-09-23T18:02:08.922Z,101528.22
2018-09-23T18:04:37.994Z,101520.45
2018-09-23T18:07:07.040Z,101529.30
2018-09-23T18:09:36.073Z,101522.13
2018-09-23T18:12:05.110Z,101528.89
2018-09-23T18:14:34.267Z,101529.30
2018-09-23T18:17:03.368Z,101532.45
2018-09-23T18:19:32.545Z,101539.78
2018-09-23T18:22:01.690Z,101538.11
2018-09-23T18:24:30.778Z,101546.58
2018-09-23T18:26:59.867Z,101544.81
2018-09-23T18:29:28.999Z,101538.03
2018-09-23T18:31:59.126Z,101542.36
2018-09-23T18:34:28.225Z,101539.00
2018-09-23T18:36:57.387Z,101531.55
2018-09-23T18:39:26.585Z,101527.33
2018-09-23T18:41:55.612Z,101526.83
2018-09-23T18:44:24.743Z,101524.38
2018-09-23T18:46:53.811Z,101530.77
2018-09-23T18:49:22.872Z,101533.62
2018-09-23T18:51:52.003Z,101533.89
2018-09-23T18:54:25.974Z,101526.84
2018-09-23T18:56:55.124Z,101534.59
2018-09-23T18:59:24.306Z,101539.30
2018-09-23T19:01:53.451Z,101541.70
2018-09-23T19:04:22.808Z,101540.33
2018-09-23T19:06:51.926Z,101535.42
2018-09-23T19:09:20.976Z,101545.21
2018-09-23T19:11:50.142Z,101542.98
2018-09-23T19:14:19.175Z,101543.34
2018-09-23T19:16:48.228Z,101542.54
2018-09-23T19:19:17.341Z,101540.27
2018-09-23T19:21:46.375Z,101541.00
2018-09-23T19:24:15.512Z,101542.13
2018-09-23T19:26:44.599Z,101537.67
2018-09-23T19:29:13.704Z,101535.48
2018-09-23T19:31:42.867Z,101533.70
2018-09-23T19:34:11.927Z,101527.84
2018-09-23T19:36:41.132Z,101525.86
2018-09-23T19:39:10.277Z,101525.16
2018-09-23T19:41:39.334Z,101519.67
2018-09-23T19:44:08.657Z,101525.25
2018-09-23T19:46:37.853Z,101521.48
2018-09-23T19:49:07.172Z,101518.08
2018-09-23T19:51:36.305Z,101517.47
2018-09-23T19:54:05.610Z,101515.11
2018-09-23T19:56:34.704Z,101516.03
2018-09-23T19:59:03.902Z,101512.98
2018-09-23T20:01:33.087Z,101510.07
2018-09-23T20:04:02.111Z,101513.29
2018-09-23T20:06:31.170Z,101510.73
2018-09-23T20:09:00.451Z,101510.79
2018-09-23T20:11:29.626Z,101516.21
2018-09-23T20:13:58.837Z,101518.67
2018-09-23T20:16:28.106Z,101513.34
2018-09-23T20:18:57.391Z,101513.16
2018-09-23T20:21:26.741Z,101513.56
2018-09-23T20:23:56.105Z,101514.75
2018-09-23T20:26:25.152Z,101511.30
2018-09-23T20:28:54.235Z,101508.52
2018-09-23T20:31:23.272Z,101508.71
2018-09-23T20:33:52.514Z,101503.99
2018-09-23T20:36:21.569Z,101504.43
2018-09-23T20:38:50.773Z,101495.41
2018-09-23T20:41:19.831Z,101501.77
2018-09-23T20:43:48.962Z,101495.55
2018-09-23T20:46:18.054Z,101495.88
2018-09-23T20:48:47.082Z,101496.54
2018-09-23T20:51:16.092Z,101492.80
2018-09-23T20:53:45.174Z,101485.82
2018-09-23T20:56:14.386Z,101489.36
2018-09-23T20:58:43.508Z,101481.90
2018-09-23T21:01:12.618Z,101481.19
2018-09-23T21:03:41.732Z,101479.48
2018-09-23T21:06:10.875Z,101477.13
2018-09-23T21:08:40.025Z,101476.74
2018-09-23T21:11:09.070Z,101475.98
2018-09-23T21:13:38.186Z,101469.09
2018-09-23T21:16:07.238Z,101467.83
2018-09-23T21:18:36.392Z,101466.07
2018-09-23T21:21:05.370Z,101459.56
2018-09-23T21:23:34.546Z,101461.82
2018-09-23T21:26:03.548Z,101469.64
2018-09-23T21:28:32.696Z,101468.52
2018-09-23T21:31:01.813Z,101463.14
2018-09-23T21:33:30.929Z,101459.27
2018-09-23T21:35:59.918Z,101457.72
2018-09-23T21:38:29.000Z,101455.75
2018-09-23T21:40:58.062Z,101447.24
2018-09-23T21:43:27.363Z,101446.96
2018-09-23T21:45:56.521Z,101447.53
2018-09-23T21:48:25.504Z,101452.53
2018-09-23T21:50:54.546Z,101453.42
2018-09-23T21:53:23.609Z,101450.87
2018-09-23T21:55:52.876Z,101455.61
2018-09-23T21:58:22.004Z,101454.56
2018-09-23T22:00:51.594Z,101447.07
2018-09-23T22:03:20.962Z,101451.27
2018-09-23T22:05:50.108Z,101445.56
2018-09-23T22:08:19.188Z,101447.55
2018-09-23T22:10:48.542Z,101437.77
2018-09-23T22:13:17.688Z,101445.22
2018-09-23T22:15:46.732Z,101439.42
2018-09-23T22:18:15.915Z,101434.59
2018-09-23T22:20:45.067Z,101431.84
2018-09-23T22:23:14.110Z,101434.39
2018-09-23T22:25:43.246Z,101427.95
2018-09-23T22:28:12.468Z,101424.03
2018-09-23T22:30:41.507Z,101416.77
2018-09-23T22:33:10.798Z,101416.73
2018-09-23T22:35:39.970Z,101411.51
2018-09-23T22:38:09.050Z,101415.11
2018-09-23T22:40:38.185Z,101416.86
2018-09-23T22:43:07.707Z,101412.80
2018-09-23T22:45:36.894Z,101416.02
2018-09-23T22:48:06.048Z,101412.71
2018-09-23T22:50:35.037Z,101412.95
2018-09-23T22:53:04.206Z,101417.00
2018-09-23T22:55:33.337Z,101402.98
2018-09-23T22:58:02.468Z,101402.38
2018-09-23T23:00:31.532Z,101404.51
2018-09-23T23:03:00.639Z,101401.52
2018-09-23T23:05:30.196Z,101397.18
2018-09-23T23:07:59.338Z,101391.28
2018-09-23T23:10:28.401Z,101390.00
2018-09-23T23:12:57.997Z,101380.38
2018-09-23T23:15:27.421Z,101378.68
2018-09-23T23:17:56.403Z,101370.61
2018-09-23T23:20:25.495Z,101372.86
2018-09-23T23:22:54.621Z,101372.30
2018-09-23T23:25:23.770Z,101365.22
2018-09-23T23:27:52.857Z,101356.89
2018-09-23T23:30:21.837Z,101356.36
2018-09-23T23:32:50.864Z,101352.50
2018-09-23T23:35:19.924Z,101352.23
2018-09-23T23:37:49.572Z,101354.34
2018-09-23T23:40:18.924Z,101351.98
2018-09-23T23:42:47.958Z,101339.63
2018-09-23T23:45:17.160Z,101340.45
2018-09-23T23:47:46.259Z,101332.20
2018-09-23T23:50:15.437Z,101328.94
2018-09-23T23:52:44.478Z,101325.85
2018-09-23T23:55:13.625Z,101323.58
2018-09-23T23:57:42.799Z,101317.78
